Martin Challenger — WDB2346 — position and weather

sailwx.info

Track history (hours):
 
Tides and Currents Weather Stations Pressure Air Temp Water Temp Dewpoint Dewpoint Depression Visibility Wind Speed Wind Dir Waves Ship Positions

Martin Challenger

Owner: MARTIN OPERATING PARTNERSHIP LP, VIDOR, TX. More information available from US FCC via Universal Licensing System and Coast Guard Vessel Documentation Center.

Last reported at 2015-Mar-04 01:33 UTC. Time now 2015-Mar-04 02:53 UTC.
Position N 29°46' W 095°06'.

Length 20 m; draft 2.9 m.

MMSI: 366874920.

Date/timePositionNaut miles runAvg speedWind from/ knotsBaromVisibWave heightAir tempDewpointWater temp
2015-Mar-04 01:33N 29°46' W 095°06'3 1.3
2015-Mar-03 23:28N 29°47' W 095°04'0 0.2
2015-Mar-03 22:30N 29°47' W 095°04'0 0.3
2015-Mar-03 21:33N 29°48' W 095°04'0 0.0
2015-Mar-03 20:27N 29°48' W 095°04'0 0.0
2015-Mar-03 19:33N 29°48' W 095°04'0 0.0
2015-Mar-03 18:33N 29°48' W 095°04'2 0.7
2015-Mar-03 15:11N 29°46' W 095°06'0 0.2
2015-Mar-03 14:33N 29°46' W 095°06'0 0.0
2015-Mar-03 13:32N 29°46' W 095°06'0 0.0
2015-Mar-03 12:16N 29°46' W 095°06'0 0.0
2015-Mar-03 05:25N 29°46' W 095°06'0 0.0
2015-Mar-03 04:23N 29°46' W 095°06'0 0.0
2015-Mar-03 03:22N 29°46' W 095°06'2 2.6
2015-Mar-03 02:29N 29°47' W 095°04'0 0.0
2015-Mar-03 01:32N 29°47' W 095°04'0 0.1
2015-Mar-03 00:33N 29°47' W 095°04'2 1.6
2015-Mar-02 23:17N 29°47' W 095°06'1 0.1
2015-Mar-02 15:23N 29°46' W 095°06'0 0.0
2015-Mar-02 14:30N 29°46' W 095°06'0 0.0
2015-Mar-02 13:31N 29°46' W 095°06'0 0.0
2015-Mar-02 12:27N 29°46' W 095°06'0 0.0
2015-Mar-02 10:20N 29°46' W 095°06'0 0.0
2015-Mar-01 08:29N 29°46' W 095°06'0 0.0
2015-Feb-28 21:14N 29°46' W 095°06'0 0.0
2015-Feb-28 16:14N 29°46' W 095°06'0 0.0
2015-Feb-28 14:30N 29°46' W 095°06'0 0.0
2015-Feb-28 04:10N 29°46' W 095°06'0 0.0
2015-Feb-27 19:33N 29°46' W 095°06'1 1.2
2015-Feb-27 18:33N 29°46' W 095°05'0 0.0
2015-Feb-27 17:33N 29°46' W 095°05'0 0.0
2015-Feb-27 16:33N 29°46' W 095°05'0 0.0
2015-Feb-27 15:33N 29°46' W 095°05'1 1.0
2015-Feb-27 14:33N 29°46' W 095°06'1 0.6
2015-Feb-27 13:32N 29°46' W 095°06'0 0.0
2015-Feb-27 12:25N 29°46' W 095°06'0 0.0
2015-Feb-27 09:23N 29°46' W 095°06'0 0.1
2015-Feb-27 07:11N 29°46' W 095°06'0 0.1
2015-Feb-27 06:09N 29°47' W 095°06'0 0.0
2015-Feb-27 05:24N 29°47' W 095°06'0 0.0
2015-Feb-27 04:33N 29°47' W 095°06'0 0.0
2015-Feb-27 03:29N 29°47' W 095°06'0 0.0
2015-Feb-27 02:15N 29°47' W 095°06'0 0.0
2015-Feb-27 01:33N 29°47' W 095°06'0 0.3
2015-Feb-27 00:30N 29°46' W 095°06'3 0.8
2015-Feb-26 21:08N 29°44' W 095°08'3 1.6
2015-Feb-26 19:22N 29°46' W 095°06'0 0.0
2015-Feb-26 17:28N 29°46' W 095°06'0 0.0
2015-Feb-26 14:28N 29°46' W 095°06'0 0.0
2015-Feb-26 13:20N 29°46' W 095°06'2 1.9
2015-Feb-26 12:13N 29°47' W 095°04'1 0.5
2015-Feb-26 10:29N 29°47' W 095°05'0 0.0
2015-Feb-26 09:29N 29°47' W 095°05'0 0.0
2015-Feb-26 08:33N 29°47' W 095°05'0 0.0
2015-Feb-26 07:33N 29°47' W 095°05'0 0.0
2015-Feb-26 06:28N 29°47' W 095°05'0 0.0
2015-Feb-26 05:33N 29°47' W 095°05'1 0.8
2015-Feb-26 04:33N 29°46' W 095°05'4 3.7
2015-Feb-26 03:33N 29°44' W 095°01'4 4.4
2015-Feb-26 02:33N 29°40' W 094°58'5 5.5
2015-Feb-26 01:33N 29°35' W 094°56'6 5.5
2015-Feb-26 00:30N 29°30' W 094°52'8 0.3
2015-Feb-24 21:21N 29°23' W 094°51'6 3.5
2015-Feb-24 19:32N 29°29' W 094°52'6 5.7
2015-Feb-24 18:33N 29°34' W 094°55'6 5.9
2015-Feb-24 17:33N 29°39' W 094°58'5 5.5
2015-Feb-24 16:33N 29°43' W 095°01'4 3.4
2015-Feb-24 15:20N 29°46' W 095°05'0 0.0
2015-Feb-24 13:33N 29°46' W 095°05'0 0.0
2015-Feb-24 12:33N 29°46' W 095°05'0 0.0
2015-Feb-24 11:33N 29°46' W 095°05'0 0.0
2015-Feb-24 10:33N 29°46' W 095°05'0 0.0
2015-Feb-24 09:33N 29°46' W 095°05'0 0.0
2015-Feb-24 08:33N 29°46' W 095°05'0 0.0
2015-Feb-24 07:33N 29°46' W 095°05'0 0.0
2015-Feb-24 06:33N 29°46' W 095°05'0 0.0
2015-Feb-24 05:33N 29°46' W 095°05'0 0.0
2015-Feb-24 04:33N 29°46' W 095°05'0 0.0
2015-Feb-24 03:33N 29°46' W 095°05'0 0.0
2015-Feb-24 02:33N 29°46' W 095°05'0 0.0
2015-Feb-24 01:33N 29°46' W 095°05'0 0.0
2015-Feb-24 00:33N 29°46' W 095°05'0 0.0
2015-Feb-23 23:33N 29°46' W 095°05'0 0.0
2015-Feb-23 22:33N 29°46' W 095°05'0 0.0
2015-Feb-23 21:32N 29°46' W 095°05'0 0.0
2015-Feb-23 20:33N 29°46' W 095°05'0 0.0
2015-Feb-23 19:33N 29°46' W 095°05'0 0.0
2015-Feb-23 18:33N 29°46' W 095°05'0 0.0
2015-Feb-23 17:33N 29°46' W 095°05'0 0.0
2015-Feb-23 16:29N 29°46' W 095°05'1 1.2
2015-Feb-23 15:32N 29°47' W 095°04'1 0.8
2015-Feb-23 14:06N 29°46' W 095°05'0 0.0
2015-Feb-23 13:25N 29°46' W 095°05'0 0.0
2015-Feb-23 12:32N 29°46' W 095°05'0 0.0
2015-Feb-23 11:32N 29°46' W 095°05'0 0.0
2015-Feb-23 10:33N 29°46' W 095°05'0 0.0
2015-Feb-23 09:33N 29°46' W 095°05'0 0.0
2015-Feb-23 08:33N 29°46' W 095°05'0 0.0
2015-Feb-23 06:28N 29°46' W 095°05'0 0.0
2015-Feb-23 05:33N 29°46' W 095°05'0 0.0
2015-Feb-23 04:25N 29°46' W 095°05'0 0.0
2015-Feb-23 03:28N 29°46' W 095°05'0 0.0
2015-Feb-23 02:31N 29°46' W 095°05'0 0.0
2015-Feb-23 01:32N 29°46' W 095°05'0 0.0
2015-Feb-23 00:16N 29°46' W 095°05'0 0.0
2015-Feb-22 23:32N 29°46' W 095°05'0 0.0
2015-Feb-22 22:33N 29°46' W 095°05'0 0.0
2015-Feb-22 21:32N 29°46' W 095°05'0 0.0
2015-Feb-22 16:33N 29°46' W 095°05'1 1.2
2015-Feb-22 15:33N 29°47' W 095°04'1 1.1
2015-Feb-22 14:33N 29°46' W 095°05'0 0.0
2015-Feb-22 13:33N 29°46' W 095°05'0 0.0
2015-Feb-22 12:33N 29°46' W 095°05'0 0.0
2015-Feb-22 11:33N 29°46' W 095°05'0 0.0
2015-Feb-22 10:33N 29°46' W 095°05'0 0.0
2015-Feb-22 09:29N 29°46' W 095°05'0 0.0
2015-Feb-22 08:33N 29°46' W 095°05'0 0.0
2015-Feb-22 07:33N 29°46' W 095°05'0 0.0
2015-Feb-22 06:33N 29°46' W 095°05'0 0.0
2015-Feb-22 05:33N 29°46' W 095°05'0 0.0
2015-Feb-22 04:33N 29°46' W 095°05'3 2.6
2015-Feb-22 03:33N 29°44' W 095°03'0 0.1
2015-Feb-22 02:33N 29°44' W 095°03'0 0.0
2015-Feb-22 01:33N 29°44' W 095°03'  
Track history (hours):
 
Tides and Currents Weather Stations Pressure Air Temp Water Temp Dewpoint Dewpoint Depression Visibility Wind Speed Wind Dir Waves Ship Positions

Martin Challenger

Owner: MARTIN OPERATING PARTNERSHIP LP, VIDOR, TX. More information available from US FCC via Universal Licensing System and Coast Guard Vessel Documentation Center.

Last reported at 2015-Mar-04 01:33 UTC. Time now 2015-Mar-04 02:53 UTC.
Position N 29°46' W 095°06'.

Length 20 m; draft 2.9 m.

MMSI: 366874920.

Date/timePositionNaut miles runAvg speedWind from/ knotsBaromVisibWave heightAir tempDewpointWater temp
2015-Mar-04 01:33N 29°46' W 095°06'3 1.3
2015-Mar-03 23:28N 29°47' W 095°04'0 0.2
2015-Mar-03 22:30N 29°47' W 095°04'0 0.3
2015-Mar-03 21:33N 29°48' W 095°04'0 0.0
2015-Mar-03 20:27N 29°48' W 095°04'0 0.0
2015-Mar-03 19:33N 29°48' W 095°04'0 0.0
2015-Mar-03 18:33N 29°48' W 095°04'2 0.7
2015-Mar-03 15:11N 29°46' W 095°06'0 0.2
2015-Mar-03 14:33N 29°46' W 095°06'0 0.0
2015-Mar-03 13:32N 29°46' W 095°06'0 0.0
2015-Mar-03 12:16N 29°46' W 095°06'0 0.0
2015-Mar-03 05:25N 29°46' W 095°06'0 0.0
2015-Mar-03 04:23N 29°46' W 095°06'0 0.0
2015-Mar-03 03:22N 29°46' W 095°06'2 2.6
2015-Mar-03 02:29N 29°47' W 095°04'0 0.0
2015-Mar-03 01:32N 29°47' W 095°04'0 0.1
2015-Mar-03 00:33N 29°47' W 095°04'2 1.6
2015-Mar-02 23:17N 29°47' W 095°06'1 0.1
2015-Mar-02 15:23N 29°46' W 095°06'0 0.0
2015-Mar-02 14:30N 29°46' W 095°06'0 0.0
2015-Mar-02 13:31N 29°46' W 095°06'0 0.0
2015-Mar-02 12:27N 29°46' W 095°06'0 0.0
2015-Mar-02 10:20N 29°46' W 095°06'0 0.0
2015-Mar-01 08:29N 29°46' W 095°06'0 0.0
2015-Feb-28 21:14N 29°46' W 095°06'0 0.0
2015-Feb-28 16:14N 29°46' W 095°06'0 0.0
2015-Feb-28 14:30N 29°46' W 095°06'0 0.0
2015-Feb-28 04:10N 29°46' W 095°06'0 0.0
2015-Feb-27 19:33N 29°46' W 095°06'1 1.2
2015-Feb-27 18:33N 29°46' W 095°05'0 0.0
2015-Feb-27 17:33N 29°46' W 095°05'0 0.0
2015-Feb-27 16:33N 29°46' W 095°05'0 0.0
2015-Feb-27 15:33N 29°46' W 095°05'1 1.0
2015-Feb-27 14:33N 29°46' W 095°06'1 0.6
2015-Feb-27 13:32N 29°46' W 095°06'0 0.0
2015-Feb-27 12:25N 29°46' W 095°06'0 0.0
2015-Feb-27 09:23N 29°46' W 095°06'0 0.1
2015-Feb-27 07:11N 29°46' W 095°06'0 0.1
2015-Feb-27 06:09N 29°47' W 095°06'0 0.0
2015-Feb-27 05:24N 29°47' W 095°06'0 0.0
2015-Feb-27 04:33N 29°47' W 095°06'0 0.0
2015-Feb-27 03:29N 29°47' W 095°06'0 0.0
2015-Feb-27 02:15N 29°47' W 095°06'0 0.0
2015-Feb-27 01:33N 29°47' W 095°06'0 0.3
2015-Feb-27 00:30N 29°46' W 095°06'3 0.8
2015-Feb-26 21:08N 29°44' W 095°08'3 1.6
2015-Feb-26 19:22N 29°46' W 095°06'0 0.0
2015-Feb-26 17:28N 29°46' W 095°06'0 0.0
2015-Feb-26 14:28N 29°46' W 095°06'0 0.0
2015-Feb-26 13:20N 29°46' W 095°06'2 1.9
2015-Feb-26 12:13N 29°47' W 095°04'1 0.5
2015-Feb-26 10:29N 29°47' W 095°05'0 0.0
2015-Feb-26 09:29N 29°47' W 095°05'0 0.0
2015-Feb-26 08:33N 29°47' W 095°05'0 0.0
2015-Feb-26 07:33N 29°47' W 095°05'0 0.0
2015-Feb-26 06:28N 29°47' W 095°05'0 0.0
2015-Feb-26 05:33N 29°47' W 095°05'1 0.8
2015-Feb-26 04:33N 29°46' W 095°05'4 3.7
2015-Feb-26 03:33N 29°44' W 095°01'4 4.4
2015-Feb-26 02:33N 29°40' W 094°58'5 5.5
2015-Feb-26 01:33N 29°35' W 094°56'6 5.5
2015-Feb-26 00:30N 29°30' W 094°52'8 0.3
2015-Feb-24 21:21N 29°23' W 094°51'6 3.5
2015-Feb-24 19:32N 29°29' W 094°52'6 5.7
2015-Feb-24 18:33N 29°34' W 094°55'6 5.9
2015-Feb-24 17:33N 29°39' W 094°58'5 5.5
2015-Feb-24 16:33N 29°43' W 095°01'4 3.4
2015-Feb-24 15:20N 29°46' W 095°05'0 0.0
2015-Feb-24 13:33N 29°46' W 095°05'0 0.0
2015-Feb-24 12:33N 29°46' W 095°05'0 0.0
2015-Feb-24 11:33N 29°46' W 095°05'0 0.0
2015-Feb-24 10:33N 29°46' W 095°05'0 0.0
2015-Feb-24 09:33N 29°46' W 095°05'0 0.0
2015-Feb-24 08:33N 29°46' W 095°05'0 0.0
2015-Feb-24 07:33N 29°46' W 095°05'0 0.0
2015-Feb-24 06:33N 29°46' W 095°05'0 0.0
2015-Feb-24 05:33N 29°46' W 095°05'0 0.0
2015-Feb-24 04:33N 29°46' W 095°05'0 0.0
2015-Feb-24 03:33N 29°46' W 095°05'0 0.0
2015-Feb-24 02:33N 29°46' W 095°05'0 0.0
2015-Feb-24 01:33N 29°46' W 095°05'0 0.0
2015-Feb-24 00:33N 29°46' W 095°05'0 0.0
2015-Feb-23 23:33N 29°46' W 095°05'0 0.0
2015-Feb-23 22:33N 29°46' W 095°05'0 0.0
2015-Feb-23 21:32N 29°46' W 095°05'0 0.0
2015-Feb-23 20:33N 29°46' W 095°05'0 0.0
2015-Feb-23 19:33N 29°46' W 095°05'0 0.0
2015-Feb-23 18:33N 29°46' W 095°05'0 0.0
2015-Feb-23 17:33N 29°46' W 095°05'0 0.0
2015-Feb-23 16:29N 29°46' W 095°05'1 1.2
2015-Feb-23 15:32N 29°47' W 095°04'1 0.8
2015-Feb-23 14:06N 29°46' W 095°05'0 0.0
2015-Feb-23 13:25N 29°46' W 095°05'0 0.0
2015-Feb-23 12:32N 29°46' W 095°05'0 0.0
2015-Feb-23 11:32N 29°46' W 095°05'0 0.0
2015-Feb-23 10:33N 29°46' W 095°05'0 0.0
2015-Feb-23 09:33N 29°46' W 095°05'0 0.0
2015-Feb-23 08:33N 29°46' W 095°05'0 0.0
2015-Feb-23 06:28N 29°46' W 095°05'0 0.0
2015-Feb-23 05:33N 29°46' W 095°05'0 0.0
2015-Feb-23 04:25N 29°46' W 095°05'0 0.0
2015-Feb-23 03:28N 29°46' W 095°05'0 0.0
2015-Feb-23 02:31N 29°46' W 095°05'0 0.0
2015-Feb-23 01:32N 29°46' W 095°05'0 0.0
2015-Feb-23 00:16N 29°46' W 095°05'0 0.0
2015-Feb-22 23:32N 29°46' W 095°05'0 0.0
2015-Feb-22 22:33N 29°46' W 095°05'0 0.0
2015-Feb-22 21:32N 29°46' W 095°05'0 0.0
2015-Feb-22 16:33N 29°46' W 095°05'1 1.2
2015-Feb-22 15:33N 29°47' W 095°04'1 1.1
2015-Feb-22 14:33N 29°46' W 095°05'0 0.0
2015-Feb-22 13:33N 29°46' W 095°05'0 0.0
2015-Feb-22 12:33N 29°46' W 095°05'0 0.0
2015-Feb-22 11:33N 29°46' W 095°05'0 0.0
2015-Feb-22 10:33N 29°46' W 095°05'0 0.0
2015-Feb-22 09:29N 29°46' W 095°05'0 0.0
2015-Feb-22 08:33N 29°46' W 095°05'0 0.0
2015-Feb-22 07:33N 29°46' W 095°05'0 0.0
2015-Feb-22 06:33N 29°46' W 095°05'0 0.0
2015-Feb-22 05:33N 29°46' W 095°05'0 0.0
2015-Feb-22 04:33N 29°46' W 095°05'3 2.6
2015-Feb-22 03:33N 29°44' W 095°03'0 0.1
2015-Feb-22 02:33N 29°44' W 095°03'0 0.0
2015-Feb-22 01:33N 29°44' W 095°03'  

Dump ship's entire track history